Neuburg — 5BQJ2 — position and weather

sailwx.info

Track history (hours):
 
Tides and Currents Weather Stations Pressure Air Temp Water Temp Dewpoint Dewpoint Depression Visibility Wind Speed Wind Dir Waves Ship Positions

Neuburg

Last reported at 2015-Jan-25 01:21 UTC. Time now 2015-Jan-25 16:21 UTC.
Position N 35°57' W 005°35'.

Length 142 m; draft 7.3 m.

Type: Cargo ship. MMSI: 212740000.

Date/timePositionNaut miles runAvg speedWind from/ knotsBaromVisibWave heightAir tempDewpointWater temp
2015-Jan-25 01:21N 35°57' W 005°35'1316.1
2015-Jan-25 00:33N 36°01' W 005°20'22317.1
2015-Jan-24 11:33N 37°17' W 000°59'2118.6
2015-Jan-24 10:25N 37°31' W 000°38'1517.6
2015-Jan-24 09:34N 37°45' W 000°30'1818.2
2015-Jan-24 08:33N 38°02' W 000°25'1 0.0
2015-Jan-23 16:19N 38°02' W 000°25'1417.9
2015-Jan-23 15:33N 37°48' W 000°28'1816.4
2015-Jan-23 14:29N 37°32' W 000°34'1516.7
2015-Jan-23 13:33N 37°21' W 000°48'22517.3
2015-Jan-23 00:33N 36°01' W 005°09'  
2015-Jan-17 19:19N 37°12' W 001°05'1418.0
2015-Jan-17 18:34N 37°21' W 000°52'1818.0
2015-Jan-17 17:33N 37°33' W 000°35'1817.8
2015-Jan-17 16:33N 37°50' W 000°28'14 0.6
2015-Jan-16 16:10N 38°04' W 000°23'1016.5
2015-Jan-16 15:34N 37°54' W 000°25'1816.3
2015-Jan-16 14:26N 37°36' W 000°29'1416.1
2015-Jan-16 13:33N 37°24' W 000°39'1716.5
2015-Jan-16 12:33N 37°14' W 000°56'21916.8
2015-Jan-15 23:33N 35°60' W 005°12'  
Track history (hours):
 
Tides and Currents Weather Stations Pressure Air Temp Water Temp Dewpoint Dewpoint Depression Visibility Wind Speed Wind Dir Waves Ship Positions

Neuburg

Last reported at 2015-Jan-25 01:21 UTC. Time now 2015-Jan-25 16:21 UTC.
Position N 35°57' W 005°35'.

Length 142 m; draft 7.3 m.

Type: Cargo ship. MMSI: 212740000.

Date/timePositionNaut miles runAvg speedWind from/ knotsBaromVisibWave heightAir tempDewpointWater temp
2015-Jan-25 01:21N 35°57' W 005°35'1316.1
2015-Jan-25 00:33N 36°01' W 005°20'22317.1
2015-Jan-24 11:33N 37°17' W 000°59'2118.6
2015-Jan-24 10:25N 37°31' W 000°38'1517.6
2015-Jan-24 09:34N 37°45' W 000°30'1818.2
2015-Jan-24 08:33N 38°02' W 000°25'1 0.0
2015-Jan-23 16:19N 38°02' W 000°25'1417.9
2015-Jan-23 15:33N 37°48' W 000°28'1816.4
2015-Jan-23 14:29N 37°32' W 000°34'1516.7
2015-Jan-23 13:33N 37°21' W 000°48'22517.3
2015-Jan-23 00:33N 36°01' W 005°09'  
2015-Jan-17 19:19N 37°12' W 001°05'1418.0
2015-Jan-17 18:34N 37°21' W 000°52'1818.0
2015-Jan-17 17:33N 37°33' W 000°35'1817.8
2015-Jan-17 16:33N 37°50' W 000°28'14 0.6
2015-Jan-16 16:10N 38°04' W 000°23'1016.5
2015-Jan-16 15:34N 37°54' W 000°25'1816.3
2015-Jan-16 14:26N 37°36' W 000°29'1416.1
2015-Jan-16 13:33N 37°24' W 000°39'1716.5
2015-Jan-16 12:33N 37°14' W 000°56'21916.8
2015-Jan-15 23:33N 35°60' W 005°12'  

Dump ship's entire track history